createdAt,value
2019-05-15T12:00:25.647Z,2.95
2019-05-15T12:04:38.332Z,2.98
2019-05-15T12:07:08.835Z,3.55
2019-05-15T12:09:39.901Z,3.23
2019-05-15T12:12:09.972Z,3.42
2019-05-15T12:14:40.006Z,3.30
2019-05-15T12:17:14.941Z,5.08
2019-05-15T12:19:41.918Z,2.85
2019-05-15T12:22:12.067Z,3.00
2019-05-15T12:24:42.110Z,3.02
2019-05-15T12:27:17.784Z,3.22
2019-05-15T12:29:44.209Z,3.45
2019-05-15T12:34:49.266Z,3.35
2019-05-15T12:37:19.743Z,2.80
2019-05-15T13:00:03.526Z,3.87
2019-05-15T13:02:34.800Z,3.52
2019-05-15T13:05:09.064Z,3.12
2019-05-15T13:07:39.172Z,3.35
2019-05-15T13:10:09.454Z,3.15
2019-05-15T13:12:55.283Z,3.05
2019-05-15T13:15:11.640Z,3.65
2019-05-15T13:17:41.756Z,3.62
2019-05-15T13:20:12.037Z,4.15
2019-05-15T13:22:42.148Z,3.50
2019-05-15T13:25:12.241Z,3.45
2019-05-15T13:27:42.348Z,3.15
2019-05-15T13:30:13.192Z,2.85
2019-05-15T13:32:43.313Z,3.45
2019-05-15T13:35:13.502Z,3.37
2019-05-15T13:37:43.656Z,3.50
2019-05-15T13:40:14.711Z,3.92
2019-05-15T13:42:44.816Z,3.67
2019-05-15T13:45:15.363Z,4.00
2019-05-15T13:47:45.613Z,3.40
2019-05-15T13:50:19.521Z,3.33
2019-05-15T13:52:49.375Z,3.10
2019-05-15T13:55:25.531Z,3.33
2019-05-15T13:57:51.159Z,3.72
2019-05-15T14:00:21.589Z,3.60
2019-05-15T14:02:51.751Z,3.85
2019-05-15T14:05:21.857Z,3.77
2019-05-15T14:07:53.587Z,4.08
2019-05-15T14:10:23.541Z,3.80
2019-05-15T14:12:53.626Z,3.62
2019-05-15T14:15:23.850Z,3.55
2019-05-15T14:17:53.792Z,3.65
2019-05-15T14:20:24.011Z,4.45
2019-05-15T14:22:54.699Z,3.60
2019-05-15T14:25:25.112Z,3.72
2019-05-15T14:27:55.219Z,3.80
2019-05-15T14:30:25.317Z,3.77
2019-05-15T14:32:55.455Z,3.50
2019-05-15T14:35:25.699Z,3.70
2019-05-15T14:38:03.575Z,3.42
2019-05-15T14:40:27.516Z,3.90
2019-05-15T14:42:59.406Z,3.60
2019-05-15T14:45:29.336Z,3.65
2019-05-15T14:47:59.489Z,3.37
2019-05-15T14:50:29.423Z,3.40
2019-05-15T14:52:59.578Z,3.70
2019-05-15T14:55:33.450Z,3.62
2019-05-15T14:58:01.273Z,3.55
2019-05-15T15:00:34.627Z,3.37
2019-05-15T15:03:03.147Z,3.65
2019-05-15T15:05:33.367Z,3.25
2019-05-15T15:08:17.413Z,3.08
2019-05-15T15:10:35.174Z,3.22
2019-05-15T15:13:05.489Z,3.10
2019-05-15T15:15:37.820Z,3.87
2019-05-15T15:18:08.265Z,3.42
2019-05-15T15:23:08.753Z,3.60
2019-05-15T15:25:39.824Z,4.40
2019-05-15T15:28:10.227Z,4.08
2019-05-15T15:30:40.259Z,3.60
2019-05-15T15:33:10.599Z,4.45
2019-05-15T15:35:40.619Z,3.75
2019-05-15T15:38:13.467Z,3.92
2019-05-15T15:43:11.856Z,3.37
2019-05-15T15:45:42.178Z,3.70
2019-05-15T15:48:12.335Z,3.83
2019-05-15T15:50:42.455Z,4.00
2019-05-15T15:53:12.548Z,3.50
2019-05-15T15:55:42.579Z,3.45
2019-05-15T15:58:12.829Z,3.22
2019-05-15T16:00:43.156Z,3.20
2019-05-15T16:03:13.240Z,3.33
2019-05-15T16:05:43.387Z,3.52
2019-05-15T16:08:13.624Z,3.40
2019-05-15T16:10:43.737Z,3.37
2019-05-15T16:13:13.835Z,3.47
2019-05-15T16:15:43.933Z,3.72
2019-05-15T16:18:14.097Z,3.55
2019-05-15T16:20:44.208Z,3.12
2019-05-15T16:23:14.330Z,3.20
2019-05-15T16:25:44.276Z,3.50
2019-05-15T16:28:14.689Z,3.42
2019-05-15T16:30:51.111Z,3.67
2019-05-15T16:33:18.444Z,3.30
2019-05-15T16:35:48.775Z,3.50
2019-05-15T16:38:19.888Z,3.33
2019-05-15T16:40:50.059Z,3.55
2019-05-15T16:43:20.367Z,3.90
2019-05-15T16:45:52.155Z,3.72
2019-05-15T16:48:22.339Z,3.67
2019-05-15T16:50:52.356Z,3.62
2019-05-15T16:53:22.536Z,3.85
2019-05-15T16:55:52.623Z,3.30
2019-05-15T16:58:22.667Z,3.55
2019-05-15T17:00:53.081Z,3.55
2019-05-15T17:03:23.189Z,3.37
2019-05-15T17:05:53.343Z,3.58
2019-05-15T17:08:23.381Z,3.00
2019-05-15T17:10:53.796Z,3.47
2019-05-15T17:13:23.903Z,3.37
2019-05-15T17:15:53.989Z,3.62
2019-05-15T17:18:24.037Z,3.55
2019-05-15T17:20:54.052Z,3.50
2019-05-15T17:23:24.033Z,3.67
2019-05-15T17:25:54.278Z,4.05
2019-05-15T17:28:24.308Z,3.67
2019-05-15T17:30:54.387Z,4.10
2019-05-15T17:33:24.439Z,4.08
2019-05-15T17:35:54.460Z,4.05
2019-05-15T17:38:24.492Z,3.80
2019-05-15T17:40:54.975Z,4.12
2019-05-15T17:43:25.024Z,3.90
2019-05-15T17:45:55.112Z,3.95
2019-05-15T17:48:25.167Z,3.50
2019-05-15T17:50:55.253Z,3.70
2019-05-15T17:53:25.584Z,3.75
2019-05-15T17:55:55.999Z,3.62
2019-05-15T17:58:26.103Z,3.70
2019-05-15T18:00:56.285Z,3.77
2019-05-15T18:03:28.757Z,3.20
2019-05-15T18:05:59.376Z,3.80
2019-05-15T18:08:29.458Z,3.70
2019-05-15T18:10:59.595Z,4.10
2019-05-15T18:13:30.571Z,4.08
2019-05-15T18:16:03.208Z,3.70
2019-05-15T18:18:32.256Z,3.62
2019-05-15T18:21:02.295Z,4.30
2019-05-15T18:23:32.384Z,3.98
2019-05-15T18:26:02.491Z,3.92
2019-05-15T18:28:32.573Z,4.30
2019-05-15T18:31:02.675Z,4.05
2019-05-15T18:33:32.608Z,4.10
2019-05-15T18:36:02.717Z,4.15
2019-05-15T18:38:32.734Z,3.60
2019-05-15T18:41:03.877Z,3.85
2019-05-15T18:43:34.208Z,3.60
2019-05-15T18:46:04.555Z,3.95
2019-05-15T18:48:34.652Z,3.67
2019-05-15T18:51:04.792Z,3.75
2019-05-15T18:53:34.988Z,3.60
2019-05-15T18:56:05.136Z,4.10
2019-05-15T18:58:35.235Z,3.37
2019-05-15T19:01:05.235Z,4.05
2019-05-15T19:03:35.340Z,4.28
2019-05-15T19:06:05.561Z,4.33
2019-05-15T19:08:35.734Z,4.12
2019-05-15T19:11:06.008Z,4.30
2019-05-15T19:13:36.188Z,4.47
2019-05-15T19:16:06.980Z,4.40
2019-05-15T19:18:38.531Z,4.30
2019-05-15T19:21:09.811Z,4.60
2019-05-15T19:23:40.487Z,3.67
2019-05-15T19:26:11.801Z,3.70
2019-05-15T19:28:42.102Z,3.83
2019-05-15T19:31:23.275Z,4.33
2019-05-15T19:33:43.824Z,4.15
2019-05-15T19:36:13.920Z,4.28
2019-05-15T19:38:43.931Z,4.08
2019-05-15T19:41:14.036Z,4.67
2019-05-15T19:43:44.044Z,4.42
2019-05-15T19:46:14.140Z,4.03
2019-05-15T19:48:45.216Z,4.03
2019-05-15T19:51:15.245Z,4.35
2019-05-15T19:53:47.734Z,4.17
2019-05-15T19:56:18.867Z,4.20
2019-05-15T19:58:48.744Z,4.45
2019-05-15T20:01:19.013Z,4.10
2019-05-15T20:03:52.805Z,4.50
2019-05-15T20:06:20.916Z,4.05
2019-05-15T20:08:50.924Z,3.95
2019-05-15T20:11:21.096Z,4.00
2019-05-15T20:13:51.244Z,3.75
2019-05-15T20:16:21.562Z,4.33
2019-05-15T20:18:51.824Z,4.40
2019-05-15T20:21:21.923Z,3.80
2019-05-15T20:23:52.196Z,4.33
2019-05-15T20:26:22.274Z,4.30
2019-05-15T20:28:52.439Z,3.80
2019-05-15T20:31:22.584Z,4.22
2019-05-15T20:34:05.016Z,4.05
2019-05-15T20:36:24.245Z,4.47
2019-05-15T20:38:54.353Z,4.08
2019-05-15T20:41:24.458Z,3.92
2019-05-15T20:43:54.421Z,4.28
2019-05-15T20:46:24.429Z,4.20
2019-05-15T20:48:54.533Z,3.92
2019-05-15T20:51:24.536Z,4.10
2019-05-15T20:53:54.640Z,4.20
2019-05-15T20:56:25.096Z,4.42
2019-05-15T20:58:55.113Z,3.98
2019-05-15T21:01:25.261Z,4.58
2019-05-15T21:03:55.359Z,4.10
2019-05-15T21:06:25.435Z,4.55
2019-05-15T21:08:57.522Z,4.20
2019-05-15T21:11:27.192Z,4.28
2019-05-15T21:13:58.131Z,4.08
2019-05-15T21:16:28.372Z,4.40
2019-05-15T21:19:00.363Z,4.50
2019-05-15T21:21:30.129Z,4.40
2019-05-15T21:24:00.988Z,4.78
2019-05-15T21:26:31.204Z,4.40
2019-05-15T21:29:01.212Z,4.83
2019-05-15T21:31:31.243Z,4.05
2019-05-15T21:34:01.345Z,4.67
2019-05-15T21:36:32.440Z,4.40
2019-05-15T21:39:02.693Z,4.50
2019-05-15T21:41:33.073Z,4.40
2019-05-15T21:44:03.145Z,4.30
2019-05-15T21:46:33.196Z,4.40
2019-05-15T21:49:03.271Z,4.10
2019-05-15T21:51:33.358Z,4.40
2019-05-15T21:54:03.436Z,4.03
2019-05-15T21:56:33.467Z,4.35
2019-05-15T21:59:03.874Z,4.55
2019-05-15T22:01:33.972Z,4.33
2019-05-15T22:04:04.076Z,4.40
2019-05-15T22:06:34.321Z,4.50
2019-05-15T22:09:07.770Z,4.08
2019-05-15T22:11:39.482Z,4.83
2019-05-15T22:14:10.163Z,4.20
2019-05-15T22:16:40.080Z,4.67
2019-05-15T22:19:10.728Z,4.65
2019-05-15T22:21:40.912Z,4.60
2019-05-15T22:24:10.962Z,4.53
2019-05-15T22:26:40.978Z,4.70
2019-05-15T22:29:11.487Z,4.90
2019-05-15T22:31:41.563Z,4.90
2019-05-15T22:34:11.664Z,4.80
2019-05-15T22:36:41.812Z,4.78
2019-05-15T22:39:11.911Z,4.87
2019-05-15T22:41:42.025Z,4.72
2019-05-15T22:44:12.088Z,4.83
2019-05-15T22:46:42.192Z,5.08
2019-05-15T22:49:12.268Z,4.78
2019-05-15T22:51:42.372Z,5.08
2019-05-15T22:54:12.450Z,4.50
2019-05-15T22:56:42.470Z,5.17
2019-05-15T22:59:12.405Z,5.17
2019-05-15T23:01:42.724Z,5.10
2019-05-15T23:04:12.733Z,5.20
2019-05-15T23:06:42.761Z,4.90
2019-05-15T23:09:12.831Z,4.97
2019-05-15T23:11:42.936Z,5.37
2019-05-15T23:14:12.872Z,5.05
2019-05-15T23:16:43.210Z,5.15
2019-05-15T23:19:13.216Z,5.10
2019-05-15T23:21:43.248Z,5.12
2019-05-15T23:24:13.257Z,5.33
2019-05-15T23:26:43.204Z,5.15
2019-05-15T23:29:13.143Z,5.37
2019-05-15T23:31:43.246Z,5.00
2019-05-15T23:34:14.385Z,6.00
2019-05-15T23:36:44.493Z,6.00
2019-05-15T23:39:14.661Z,6.50
2019-05-15T23:41:44.743Z,6.03
2019-05-15T23:44:14.940Z,6.03
2019-05-15T23:46:45.025Z,6.20
2019-05-15T23:49:15.128Z,5.35
2019-05-15T23:51:45.204Z,6.37
2019-05-15T23:54:15.173Z,6.17
2019-05-15T23:56:45.187Z,6.05
2019-05-15T23:59:15.159Z,6.40
